Tiree Airport

About
Name: Tiree Airport
Identifier:  TRE/EGPU
Operator:  Highlands and Islands Airports Limited
Public/Private:  Public
Local Time:  23. Aug 09:47 BST
Description: Tiree Airport is located 2.5 nautical miles north northeast of Balemartine on the island of Tiree in the Inner Hebrides off the west coast of Scotland. It is owned and maintained by Highlands and Islands Airports Limited.
Source: Wikipedia
Location
Runways
Identifier Length (m/ft) Surface
05/23 1,472/4,829 Asphalt
11/29 799/2,621 Asphalt
17/35 792/2,598 Concrete
Flights per Day
3 flights
Distance: 166km (103mi)
Punctuality
91% (0 flights per day delayed)
Delay Average: 393 minutes
Current Weather
  16kt (29km/h / 18mph) from 200°
  9km (6 mi.)
 METAR EGPU 230720Z AUTO 20016KT 170V230 9999 BKN014/// BKN024/// 16/14 Q1015

Current Flights

Departures
Number Departure To Airline
Arrivals
Number Arrival From Airline
 LM453 09:50  Glasgow  Loganair
 LM457 17:35  Glasgow  Loganair

Current Delays

Departures
N/A
Arrivals
N/A

Destinations

Top Destinations
Airport Flights
per week
Seats
per week
  Glasgow (GLA) 25 47 3 6

Airlines & Planes

Top Airlines
Airline Flights
per Day
Seats
per Day
  Loganair 3 6
Top Plane Types
Model Flights Seats
De Havilland DHC-6 3.5/day - 0
Saab 340 0.2/day 6/day 6.766666666666667